Terminal Aerodrome Forecast
Issued by NWS

Home | Current Version | Previous Version | Text Only | Print | Product List | Glossary On
Versions: 1 2 3 4 5 6 7 8 9 10 11 12 13 14 15 16 17 18 19 20 21
034
FTUS41 KILN 301121
TAFLCK
TAF
KLCK 301121Z 3012/0112 16007KT 3SM BR SCT100 BKN250 WS020/21035KT
      TEMPO 3012/3013 1/4SM FG VV003
     FM301300 18009KT P6SM SCT080 BKN250
     FM301500 19014G23KT P6SM SCT070 BKN200
     FM010000 17010KT P6SM SCT060 BKN230
     FM010500 17012G18KT P6SM VCSH BKN130 WS020/19040KT
     FM010800 17014G21KT P6SM -SHRA VCTS OVC060CB
     FM011100 19014G22KT P6SM -SHRA VCTS OVC026CB=

USA.gov is the U.S. government's official web portal to all federal, state and local government web resources and services.